Time;durP1;ratioP1;P1;durP2;ratioP2;P2;SDS_P1;SDS_P2;PMS_P1;PMS_P2;Temp;Humidity;BMP_temperature;BMP_pressure;BME280_temperature;BME280_humidity;BME280_pressure;Samples;Min_cycle;Max_cycle;Signal;HPM_P1;HPM_P2
2022/03/21 00:00:49;;;;;;;12.93;7.83;;;;;;;3.65;45.35;96377.41;5031508;28;20213;-66
2022/03/21 00:03:17;;;;;;;14.40;7.30;;;;;;;3.59;45.27;96366.72;5031620;28;20730;-67
2022/03/21 00:05:45;;;;;;;12.60;7.90;;;;;;;3.58;45.68;96380.97;5031911;28;20324;-61
2022/03/21 00:08:11;;;;;;;12.83;6.77;;;;;;;3.58;45.23;96377.63;5031532;28;20259;-61
2022/03/21 00:10:38;;;;;;;12.23;7.30;;;;;;;3.72;45.38;96378.03;5031717;28;20707;-61
2022/03/21 00:13:05;;;;;;;12.20;7.97;;;;;;;3.49;44.51;96380.44;5031666;28;20210;-61
2022/03/21 00:15:32;;;;;;;13.83;7.97;;;;;;;3.27;45.73;96350.88;5031281;28;20262;-61
2022/03/21 00:18:01;;;;;;;11.60;7.00;;;;;;;3.46;44.89;96388.88;5031296;28;20695;-64
2022/03/21 00:20:27;;;;;;;14.63;7.90;;;;;;;3.36;44.65;96385.81;5031757;28;20210;-60
2022/03/21 00:22:53;;;;;;;12.53;7.43;;;;;;;3.38;44.16;96398.31;5031172;28;20186;-61
2022/03/21 00:25:19;;;;;;;14.13;8.07;;;;;;;3.24;44.98;96370.25;5031485;28;20210;-60
2022/03/21 00:27:45;;;;;;;13.00;7.50;;;;;;;3.22;45.23;96350.22;5013571;28;20747;-63
2022/03/21 00:30:11;;;;;;;15.93;7.97;;;;;;;3.15;45.44;96350.44;5031440;28;20776;-60
2022/03/21 00:32:37;;;;;;;14.47;7.77;;;;;;;3.12;44.92;96358.03;5013913;28;20196;-65
2022/03/21 00:35:07;;;;;;;14.57;8.30;;;;;;;3.20;44.67;96363.69;5031143;28;20210;-66
2022/03/21 00:37:35;;;;;;;13.87;8.13;;;;;;;3.08;45.31;96354.81;5031472;28;20189;-62
2022/03/21 00:40:01;;;;;;;15.63;7.33;;;;;;;3.22;44.77;96360.25;5031253;28;20213;-60
2022/03/21 00:42:26;;;;;;;14.33;8.00;;;;;;;2.91;45.44;96343.59;5032252;28;20521;-64
2022/03/21 00:44:54;;;;;;;17.57;7.77;;;;;;;2.99;45.29;96345.00;5032961;28;20253;-63
2022/03/21 00:47:20;;;;;;;18.47;8.30;;;;;;;2.97;45.30;96336.69;5031159;28;20244;-60
2022/03/21 00:49:46;;;;;;;11.33;7.93;;;;;;;2.78;46.04;96315.47;5031085;28;20229;-60
2022/03/21 00:52:12;;;;;;;14.00;7.70;;;;;;;2.92;44.82;96346.06;5031113;28;20264;-61
2022/03/21 00:54:38;;;;;;;17.03;8.10;;;;;;;3.04;45.40;96352.41;5031378;28;20286;-67
2022/03/21 00:57:03;;;;;;;11.27;7.57;;;;;;;3.05;45.73;96332.28;5031511;28;20596;-63
2022/03/21 00:59:29;;;;;;;14.37;8.53;;;;;;;3.13;45.14;96327.84;5031104;28;20246;-60
2022/03/21 01:01:54;;;;;;;13.40;8.37;;;;;;;3.16;44.88;96345.34;5031260;28;20273;-61
2022/03/21 01:04:20;;;;;;;12.93;7.40;;;;;;;3.28;44.95;96344.16;5030925;28;20677;-60
2022/03/21 01:06:45;;;;;;;11.70;7.97;;;;;;;3.08;45.92;96327.16;5031145;28;20284;-61
2022/03/21 01:09:14;;;;;;;13.57;8.00;;;;;;;3.07;45.80;96317.97;5030892;28;20226;-60
2022/03/21 01:11:40;;;;;;;16.60;8.57;;;;;;;3.21;46.16;96318.41;5013224;28;20176;-61
2022/03/21 01:14:05;;;;;;;13.83;8.37;;;;;;;3.19;46.18;96319.34;5030952;28;20185;-64
2022/03/21 01:16:31;;;;;;;18.47;7.67;;;;;;;3.00;45.93;96315.69;5013397;28;20247;-67
2022/03/21 01:18:56;;;;;;;11.50;7.70;;;;;;;2.84;45.71;96310.28;5031007;28;20652;-62
2022/03/21 01:21:22;;;;;;;15.20;8.17;;;;;;;2.86;46.65;96306.03;5031203;28;20198;-62
2022/03/21 01:23:47;;;;;;;11.70;7.20;;;;;;;2.77;47.07;96280.38;5030783;28;20185;-62
2022/03/21 01:26:12;;;;;;;11.93;7.37;;;;;;;2.63;47.52;96279.94;5031160;28;20724;-67
2022/03/21 01:28:38;;;;;;;16.10;9.13;;;;;;;2.48;46.70;96283.69;5033214;28;20175;-67
2022/03/21 01:31:03;;;;;;;13.90;7.37;;;;;;;2.52;46.00;96297.81;5019586;23;20254;-67
2022/03/21 01:33:31;;;;;;;11.87;7.83;;;;;;;2.62;45.02;96311.75;5014555;28;20659;-68
2022/03/21 01:35:57;;;;;;;14.83;7.90;;;;;;;2.65;47.59;96268.97;5014347;28;20270;-61
2022/03/21 01:38:22;;;;;;;12.80;7.40;;;;;;;2.58;46.50;96275.03;5014358;28;20194;-67
2022/03/21 01:40:48;;;;;;;14.57;7.20;;;;;;;2.55;46.70;96275.94;5014261;28;20210;-61
2022/03/21 01:43:13;;;;;;;12.67;7.07;;;;;;;2.33;48.01;96243.94;5014370;28;20719;-61
2022/03/21 01:45:39;;;;;;;12.37;7.53;;;;;;;2.34;47.28;96268.19;5014472;28;20252;-67
2022/03/21 01:48:05;;;;;;;12.93;7.27;;;;;;;2.52;46.46;96285.25;5013987;28;20709;-67
2022/03/21 01:50:31;;;;;;;12.43;6.97;;;;;;;2.44;46.56;96257.03;5013235;28;20214;-67
2022/03/21 01:55:45;;;;;;;14.77;8.63;;;;;;;2.64;46.86;96267.34;5030786;23;20244;-61
2022/03/21 01:58:15;;;;;;;17.07;8.90;;;;;;;2.34;47.20;96268.19;5033797;28;20191;-61
2022/03/21 02:00:43;;;;;;;13.23;7.83;;;;;;;1.91;47.66;96250.09;5034021;28;20216;-61
2022/03/21 02:03:08;;;;;;;12.30;7.47;;;;;;;1.74;47.94;96244.69;5033670;28;20179;-66
2022/03/21 02:05:37;;;;;;;12.20;7.63;;;;;;;1.86;47.68;96251.91;5034021;28;20223;-64
2022/03/21 02:08:03;;;;;;;10.93;6.90;;;;;;;1.72;46.46;96267.28;5033564;28;20210;-66
2022/03/21 02:10:29;;;;;;;11.07;7.40;;;;;;;1.48;46.98;96256.16;5033706;28;20218;-61
2022/03/21 02:12:55;;;;;;;13.70;7.57;;;;;;;1.37;47.10;96257.28;5033513;28;20373;-62
2022/03/21 02:15:21;;;;;;;10.80;7.13;;;;;;;1.35;47.63;96242.31;5033744;28;20238;-60
2022/03/21 02:17:48;;;;;;;11.97;8.20;;;;;;;1.26;47.71;96237.50;5033801;28;20217;-61
2022/03/21 02:20:18;;;;;;;13.33;7.50;;;;;;;1.41;48.18;96238.81;5033496;28;20198;-63
2022/03/21 02:23:08;;;;;;;11.10;7.90;;;;;;;1.59;47.31;96250.91;5033400;28;20174;-61
2022/03/21 02:25:41;;;;;;;14.47;8.20;;;;;;;1.61;48.08;96237.50;5015726;28;20672;-61
2022/03/21 02:28:12;;;;;;;13.07;7.30;;;;;;;1.73;48.17;96238.84;5015732;28;20664;-61
2022/03/21 02:30:44;;;;;;;12.33;7.10;;;;;;;1.94;47.23;96248.31;5051158;23;20264;-65
2022/03/21 02:33:11;;;;;;;12.70;7.30;;;;;;;1.82;48.86;96233.59;5053304;28;20243;-65
2022/03/21 02:35:38;;;;;;;13.50;7.37;;;;;;;1.62;49.20;96230.75;5053420;28;20205;-67
2022/03/21 02:38:06;;;;;;;12.93;7.13;;;;;;;1.91;48.47;96247.59;5053007;28;20178;-61
2022/03/21 02:40:32;;;;;;;12.03;7.33;;;;;;;1.77;49.54;96219.53;5050837;28;20672;-67
2022/03/21 02:42:58;;;;;;;11.93;7.17;;;;;;;1.75;49.94;96234.63;5052878;28;20629;-61
2022/03/21 02:45:23;;;;;;;13.10;7.27;;;;;;;1.79;49.44;96242.88;5052883;28;20217;-61
2022/03/21 02:47:49;;;;;;;12.80;7.03;;;;;;;1.86;49.06;96239.38;5052921;28;20558;-62
2022/03/21 02:50:43;;;;;;;13.30;7.53;;;;;;;1.98;48.35;96261.63;5052751;28;20768;-60
2022/03/21 02:53:10;;;;;;;12.30;7.83;;;;;;;1.81;47.26;96276.25;5052690;28;20182;-63
2022/03/21 02:55:36;;;;;;;12.37;6.90;;;;;;;1.47;47.98;96258.72;5052957;28;20215;-64
2022/03/21 02:58:02;;;;;;;10.07;6.53;;;;;;;1.34;48.46;96250.66;5052569;28;20188;-63
2022/03/21 03:00:28;;;;;;;15.20;7.77;;;;;;;1.09;50.75;96219.50;5052906;28;20244;-67
2022/03/21 03:02:54;;;;;;;16.33;9.77;;;;;;;0.80;50.28;96204.34;5052605;28;20269;-61
2022/03/21 03:05:20;;;;;;;12.33;7.80;;;;;;;0.74;50.42;96219.50;5052733;28;20313;-67
2022/03/21 03:07:46;;;;;;;12.13;6.70;;;;;;;0.58;50.31;96234.00;5052573;28;20211;-62
2022/03/21 03:10:11;;;;;;;12.40;6.73;;;;;;;0.83;50.84;96224.28;5052708;28;20229;-67
2022/03/21 03:12:36;;;;;;;11.13;6.43;;;;;;;0.90;49.97;96220.81;5052372;28;20177;-67
2022/03/21 03:15:03;;;;;;;15.67;7.10;;;;;;;1.10;50.17;96221.19;5034543;28;20217;-66
2022/03/21 03:17:28;;;;;;;8.80;5.90;;;;;;;1.05;50.47;96217.94;5052058;28;20270;-65
2022/03/21 03:19:54;;;;;;;9.87;6.50;;;;;;;0.75;49.81;96231.13;5052370;28;20281;-67
2022/03/21 03:22:21;;;;;;;9.70;6.10;;;;;;;0.78;50.17;96229.41;5050956;28;20185;-61
2022/03/21 03:24:48;;;;;;;17.10;6.63;;;;;;;0.72;50.24;96224.53;5052106;28;20671;-61
2022/03/21 03:27:14;;;;;;;10.17;6.57;;;;;;;0.67;50.35;96222.97;5051907;28;20212;-62
2022/03/21 03:29:39;;;;;;;11.77;6.33;;;;;;;0.73;50.17;96226.16;5051827;28;20253;-61
2022/03/21 03:32:05;;;;;;;10.63;5.90;;;;;;;1.19;87.31;96103.25;5052134;28;20174;-65
2022/03/21 03:34:32;;;;;;;10.40;5.97;;;;;;;1.28;57.17;96501.28;5052022;28;20295;-63
2022/03/21 03:36:58;;;;;;;12.37;7.10;;;;;;;1.45;52.59;96533.53;5052277;28;20231;-66
2022/03/21 03:39:27;;;;;;;12.73;7.57;;;;;;;1.56;51.51;96464.78;5051754;28;20259;-63
2022/03/21 03:41:52;;;;;;;16.37;8.13;;;;;;;1.61;50.95;96407.06;5052028;28;20174;-63
2022/03/21 03:44:18;;;;;;;10.13;6.70;;;;;;;1.82;50.12;96406.56;5050321;28;20190;-61
2022/03/21 03:46:44;;;;;;;13.67;7.27;;;;;;;1.72;50.99;96364.22;5050420;28;20652;-61
2022/03/21 03:49:10;;;;;;;15.00;7.43;;;;;;;1.87;49.28;96401.47;5051586;28;20615;-63
2022/03/21 03:51:36;;;;;;;10.57;6.63;;;;;;;1.84;49.67;96392.31;5051543;28;20184;-61
2022/03/21 03:54:01;;;;;;;11.73;7.17;;;;;;;2.05;49.99;96366.75;5051393;28;20191;-63
2022/03/21 03:56:27;;;;;;;13.97;7.47;;;;;;;1.91;49.36;96377.97;5050410;28;20182;-62
2022/03/21 03:58:52;;;;;;;13.77;7.43;;;;;;;1.82;49.46;96353.91;5051878;28;20188;-61
2022/03/21 04:01:18;;;;;;;10.33;6.30;;;;;;;2.01;49.07;96387.75;5051949;28;20670;-64
2022/03/21 04:03:46;;;;;;;12.80;7.03;;;;;;;2.10;49.51;96359.91;5051470;28;20537;-66
2022/03/21 04:06:23;;;;;;;11.73;6.63;;;;;;;2.11;49.36;96365.78;5051890;28;20683;-61
2022/03/21 04:08:50;;;;;;;13.60;7.40;;;;;;;2.10;48.29;96374.16;5051452;28;20589;-63
2022/03/21 04:11:17;;;;;;;12.80;7.70;;;;;;;2.17;47.29;96400.75;5051781;28;20209;-60
2022/03/21 04:13:43;;;;;;;12.67;7.73;;;;;;;2.11;47.28;96390.84;5051338;28;20221;-64
2022/03/21 04:16:09;;;;;;;15.73;7.70;;;;;;;2.12;48.87;96327.31;5051100;28;20205;-65
2022/03/21 04:18:35;;;;;;;10.70;7.00;;;;;;;2.32;48.23;96362.75;5050005;28;20191;-63
2022/03/21 04:21:01;;;;;;;13.27;7.17;;;;;;;2.15;47.44;96372.34;5051506;28;20239;-62
2022/03/21 04:23:27;;;;;;;13.83;7.67;;;;;;;2.19;45.96;96399.00;5049886;28;20185;-61
2022/03/21 04:25:52;;;;;;;11.07;7.23;;;;;;;2.21;45.69;96403.16;5051459;28;20284;-62
2022/03/21 04:28:18;;;;;;;13.03;7.43;;;;;;;2.37;44.15;96427.00;5051256;28;20192;-60
2022/03/21 04:30:44;;;;;;;11.63;7.17;;;;;;;2.33;45.60;96384.44;5051147;28;20358;-62
2022/03/21 04:33:16;;;;;;;12.67;7.93;;;;;;;2.26;45.32;96391.28;5051013;28;20700;-64
2022/03/21 04:35:43;;;;;;;12.47;8.03;;;;;;;2.70;65.06;96367.59;5051218;28;20249;-67
2022/03/21 04:38:13;;;;;;;12.17;8.13;;;;;;;2.73;46.43;96417.72;5051013;28;20178;-64
2022/03/21 04:40:44;;;;;;;12.53;7.43;;;;;;;2.66;44.14;96411.22;5050845;28;20209;-66
2022/03/21 04:43:10;;;;;;;12.17;7.13;;;;;;;2.56;43.61;96392.22;5049721;28;20547;-61
2022/03/21 04:45:36;;;;;;;13.10;8.20;;;;;;;2.51;44.20;96378.97;5051414;28;20550;-61
2022/03/21 04:48:04;;;;;;;13.63;7.50;;;;;;;2.51;43.08;96392.34;5050855;28;20566;-63
2022/03/21 04:50:33;;;;;;;10.37;6.90;;;;;;;2.55;43.18;96388.06;5051231;28;20733;-66
2022/03/21 04:52:59;;;;;;;18.67;8.23;;;;;;;2.38;44.42;96363.38;5049610;28;20182;-61
2022/03/21 04:55:26;;;;;;;32.83;14.40;;;;;;;2.31;44.33;96361.09;5051117;28;20202;-61
2022/03/21 04:57:51;;;;;;;32.23;15.77;;;;;;;2.36;43.67;96371.84;5051175;28;20224;-64
2022/03/21 05:00:17;;;;;;;28.57;13.87;;;;;;;2.57;44.09;96363.75;5051103;28;20233;-63
2022/03/21 05:02:42;;;;;;;43.33;18.57;;;;;;;2.57;43.50;96373.78;5057397;23;20619;-65
2022/03/21 05:05:08;;;;;;;32.67;14.03;;;;;;;2.67;43.17;96382.72;5054546;28;20236;-64
2022/03/21 05:07:45;;;;;;;33.70;15.70;;;;;;;2.28;44.04;96311.81;5054600;28;20181;-63
2022/03/21 05:10:14;;;;;;;28.47;13.27;;;;;;;2.73;42.38;96382.56;5054614;28;20568;-63
2022/03/21 05:12:40;;;;;;;28.10;14.27;;;;;;;2.80;43.24;96383.22;5053202;28;20177;-64
2022/03/21 05:15:07;;;;;;;33.03;14.43;;;;;;;2.82;43.41;96372.28;5053068;28;20261;-66
2022/03/21 05:17:33;;;;;;;21.33;10.33;;;;;;;2.77;43.84;96376.59;5054612;28;20669;-61
2022/03/21 05:19:59;;;;;;;21.70;9.17;;;;;;;2.88;42.79;96392.22;5054050;28;20194;-61
2022/03/21 05:22:26;;;;;;;15.63;8.13;;;;;;;2.85;43.16;96379.72;5054155;28;20714;-65
2022/03/21 05:35:57;;;;;;;12.43;7.00;;;;;;;3.29;42.67;96396.09;5054673;28;20640;-61
2022/03/21 05:38:25;;;;;;;13.07;7.20;;;;;;;3.13;42.19;96380.59;5054201;28;20224;-64
2022/03/21 05:40:52;;;;;;;12.80;7.23;;;;;;;3.29;42.32;96388.56;5053092;28;20270;-65
2022/03/21 05:43:18;;;;;;;13.23;6.50;;;;;;;3.41;42.73;96398.25;5052862;28;20178;-64
2022/03/21 05:45:44;;;;;;;13.47;6.97;;;;;;;3.38;42.46;96394.13;5054288;28;20308;-62
2022/03/21 05:51:01;;;;;;;14.20;7.47;;;;;;;3.39;42.42;96400.78;5054251;28;20749;-63
2022/03/21 05:53:26;;;;;;;13.77;6.87;;;;;;;3.53;42.54;96389.53;5054035;28;20189;-61
2022/03/21 05:55:52;;;;;;;11.87;6.77;;;;;;;3.36;41.68;96379.97;5053586;28;20651;-66
2022/03/21 05:58:18;;;;;;;12.10;6.83;;;;;;;3.37;42.85;96382.41;5052485;28;20209;-65
2022/03/21 06:00:43;;;;;;;9.87;6.47;;;;;;;3.42;43.54;96368.03;5052368;28;20688;-61
2022/03/21 06:03:10;;;;;;;12.67;7.23;;;;;;;3.45;43.50;96362.09;5053672;28;20174;-61
2022/03/21 06:05:36;;;;;;;14.40;7.70;;;;;;;3.55;42.93;96366.00;5052298;28;20348;-62
2022/03/21 06:08:01;;;;;;;15.00;7.83;;;;;;;3.77;42.61;96378.72;5053687;28;20667;-68
2022/03/21 06:10:29;;;;;;;15.27;7.20;;;;;;;3.77;41.13;96416.44;5052652;28;20227;-65
2022/03/21 06:12:55;;;;;;;9.90;6.07;;;;;;;3.48;41.94;96383.78;5053684;28;20166;-61
2022/03/21 06:15:21;;;;;;;12.67;6.40;;;;;;;3.48;42.86;96376.25;5051159;28;20209;-64
2022/03/21 06:17:47;;;;;;;13.40;7.10;;;;;;;3.60;42.66;96394.31;5053822;28;20564;-65
2022/03/21 06:20:15;;;;;;;13.93;6.63;;;;;;;3.49;44.68;96332.66;5035727;28;20589;-61
2022/03/21 06:22:41;;;;;;;12.00;6.40;;;;;;;3.37;43.18;96332.16;5053595;28;20568;-61
2022/03/21 06:25:08;;;;;;;12.37;6.20;;;;;;;3.90;43.73;96373.25;5053946;28;20188;-65
2022/03/21 06:27:38;;;;;;;10.43;5.83;;;;;;;3.92;41.88;96388.34;5052094;28;20178;-62
2022/03/21 06:30:06;;;;;;;11.40;6.57;;;;;;;3.95;43.14;96370.63;5053198;28;20326;-67
2022/03/21 06:32:31;;;;;;;11.27;6.63;;;;;;;3.88;42.79;96369.19;5051953;28;20205;-62
2022/03/21 06:34:57;;;;;;;12.20;7.47;;;;;;;4.00;41.47;96394.75;5051778;28;20253;-62
2022/03/21 06:37:23;;;;;;;12.67;7.27;;;;;;;4.16;42.42;96380.81;5053233;28;20213;-62
2022/03/21 06:39:48;;;;;;;14.53;7.43;;;;;;;4.22;42.07;96389.88;5053017;28;20213;-63
2022/03/21 06:42:14;;;;;;;11.00;7.03;;;;;;;4.39;42.00;96395.19;5053822;28;20201;-67
2022/03/21 06:44:41;;;;;;;13.77;7.33;;;;;;;4.52;41.75;96390.56;5053142;28;20671;-60
2022/03/21 06:47:09;;;;;;;12.20;7.80;;;;;;;4.43;41.21;96386.66;5053522;28;20184;-66
2022/03/21 06:49:35;;;;;;;15.57;7.30;;;;;;;4.36;40.35;96409.56;5051501;28;20241;-62
2022/03/21 06:52:08;;;;;;;12.97;6.33;;;;;;;4.40;42.75;96369.16;5053332;28;20679;-60
2022/03/21 06:54:34;;;;;;;13.57;6.23;;;;;;;4.49;42.93;96373.03;5053010;28;20194;-64
2022/03/21 06:56:59;;;;;;;13.30;7.23;;;;;;;4.71;42.16;96387.38;5051804;28;20178;-62
2022/03/21 06:59:25;;;;;;;10.53;6.97;;;;;;;4.63;42.17;96389.31;5052891;28;20198;-62
2022/03/21 07:01:50;;;;;;;9.40;6.67;;;;;;;4.55;42.68;96371.13;5053087;28;20187;-61
2022/03/21 07:04:16;;;;;;;9.53;6.47;;;;;;;4.68;41.69;96379.94;5051350;28;20234;-62
2022/03/21 07:06:42;;;;;;;11.00;6.50;;;;;;;4.69;42.29;96373.19;5053292;28;20224;-65
2022/03/21 07:09:07;;;;;;;10.43;6.53;;;;;;;4.51;42.43;96383.88;5052622;28;20253;-65
2022/03/21 07:11:34;;;;;;;16.30;7.47;;;;;;;4.48;41.93;96396.56;5053160;28;20253;-67
2022/03/21 07:14:01;;;;;;;12.57;7.63;;;;;;;4.66;41.38;96384.19;5052622;28;20265;-67
2022/03/21 07:16:27;;;;;;;12.67;7.57;;;;;;;4.68;40.53;96391.69;5051448;28;20184;-68
2022/03/21 07:18:52;;;;;;;12.03;7.27;;;;;;;4.98;40.25;96398.19;5051252;28;20192;-66
2022/03/21 07:21:19;;;;;;;12.63;7.00;;;;;;;4.97;39.71;96414.19;5051344;28;20217;-61
2022/03/21 07:23:45;;;;;;;9.93;6.80;;;;;;;4.99;41.47;96370.41;5052434;28;20179;-66
2022/03/21 07:26:12;;;;;;;8.43;5.77;;;;;;;4.90;41.18;96373.28;5052385;28;20199;-61
2022/03/21 07:28:38;;;;;;;13.60;6.77;;;;;;;4.98;42.03;96367.97;5051143;28;20188;-63
2022/03/21 07:31:04;;;;;;;13.40;7.60;;;;;;;5.08;41.56;96364.22;5052795;28;20252;-68
2022/03/21 07:33:29;;;;;;;13.90;7.73;;;;;;;5.19;41.09;96384.03;5051013;28;20188;-63
2022/03/21 07:35:55;;;;;;;11.87;6.90;;;;;;;5.20;40.56;96391.53;5052744;28;20203;-61
2022/03/21 07:38:22;;;;;;;11.43;7.53;;;;;;;5.33;38.71;96424.69;5052124;28;20177;-65
2022/03/21 07:40:49;;;;;;;12.87;6.40;;;;;;;5.28;40.62;96386.19;5052382;28;20209;-63
2022/03/21 07:43:15;;;;;;;14.10;7.60;;;;;;;5.31;40.91;96376.84;5052042;28;20173;-67
2022/03/21 07:48:28;;;;;;;12.20;7.03;;;;;;;4.97;39.67;96392.34;5052223;28;20167;-68
2022/03/21 07:50:54;;;;;;;12.70;7.37;;;;;;;4.97;41.10;96353.69;5052371;28;20644;-66
2022/03/21 07:53:20;;;;;;;14.63;7.63;;;;;;;5.07;41.29;96353.31;5051864;28;20559;-64
2022/03/21 07:55:47;;;;;;;13.87;7.93;;;;;;;4.97;40.56;96371.34;5051953;28;20209;-63
2022/03/21 07:58:13;;;;;;;12.63;7.70;;;;;;;4.89;39.64;96379.19;5051708;28;20171;-64
2022/03/21 08:00:42;;;;;;;14.70;7.80;;;;;;;4.77;39.32;96394.72;5050285;28;20777;-66
2022/03/21 08:03:11;;;;;;;14.47;8.53;;;;;;;4.66;39.26;96379.16;5057256;23;20685;-63
2022/03/21 08:05:37;;;;;;;11.53;7.13;;;;;;;4.66;39.52;96369.09;5010603;28;20216;-62
2022/03/21 08:08:03;;;;;;;17.77;9.77;;;;;;;4.63;40.60;96346.50;5012468;28;20189;-68
2022/03/21 08:10:29;;;;;;;11.07;8.00;;;;;;;4.61;41.97;96325.59;5012051;28;20307;-68
2022/03/21 08:12:56;;;;;;;13.63;8.57;;;;;;;4.81;41.44;96318.16;5011972;28;20266;-62
2022/03/21 08:15:22;;;;;;;19.33;8.43;;;;;;;5.02;42.11;96309.00;5012188;28;20205;-63
2022/03/21 08:17:55;;;;;;;12.20;8.37;;;;;;;5.20;41.46;96322.63;5010737;28;20191;-63
2022/03/21 08:20:22;;;;;;;15.53;8.37;;;;;;;5.20;40.53;96340.28;5012077;28;20200;-63
2022/03/21 08:22:49;;;;;;;12.63;7.30;;;;;;;5.35;41.38;96337.19;5012159;28;20191;-63
2022/03/21 08:25:20;;;;;;;12.93;7.83;;;;;;;5.47;40.30;96352.72;5012064;28;20698;-63
2022/03/21 08:27:47;;;;;;;11.93;7.40;;;;;;;5.65;39.06;96372.19;5010993;28;20201;-63
2022/03/21 08:30:15;;;;;;;12.50;7.30;;;;;;;5.87;38.79;96375.56;5010642;28;20241;-68
2022/03/21 08:32:42;;;;;;;12.63;7.47;;;;;;;5.94;38.73;96371.06;5012091;28;20188;-68
2022/03/21 08:35:08;;;;;;;13.23;7.73;;;;;;;6.07;40.10;96339.44;5012190;28;20206;-69
2022/03/21 08:37:34;;;;;;;14.80;8.10;;;;;;;6.06;39.81;96327.69;5012818;28;20252;-67
2022/03/21 08:39:59;;;;;;;16.83;8.77;;;;;;;6.25;39.29;96347.97;5015974;28;20577;-63
2022/03/21 08:42:25;;;;;;;12.53;8.17;;;;;;;6.40;39.75;96322.88;5015951;28;20189;-63
2022/03/21 08:44:50;;;;;;;15.60;9.27;;;;;;;6.53;39.73;96326.56;5015987;28;20206;-62
2022/03/21 08:47:16;;;;;;;12.60;8.83;;;;;;;6.51;39.00;96340.97;5014401;28;20197;-62
2022/03/21 08:49:42;;;;;;;17.83;8.53;;;;;;;6.77;39.12;96332.25;5014266;28;20209;-68
2022/03/21 08:52:16;;;;;;;14.00;8.53;;;;;;;7.20;39.07;96324.47;5015928;28;20189;-65
2022/03/21 08:54:41;;;;;;;13.07;8.67;;;;;;;7.37;36.87;96369.25;5016104;28;20714;-67
2022/03/21 08:57:07;;;;;;;15.50;8.67;;;;;;;7.38;38.69;96343.88;5014584;28;20189;-63
2022/03/21 08:59:33;;;;;;;13.20;8.50;;;;;;;7.61;37.85;96346.16;5015609;28;20221;-68
2022/03/21 09:01:58;;;;;;;16.07;8.53;;;;;;;7.88;38.33;96323.81;5017022;28;20197;-67
2022/03/21 09:04:23;;;;;;;14.37;8.67;;;;;;;8.29;37.28;96350.53;5015446;28;20205;-66
2022/03/21 09:06:49;;;;;;;12.07;8.17;;;;;;;8.61;35.73;96386.16;5015731;28;20665;-63
2022/03/21 09:09:18;;;;;;;15.23;8.03;;;;;;;8.89;35.99;96366.13;5013894;28;20593;-68
2022/03/21 09:11:44;;;;;;;14.73;7.93;;;;;;;8.44;35.03;96387.78;5014111;28;20226;-62
2022/03/21 09:14:12;;;;;;;12.07;7.40;;;;;;;8.05;34.86;96364.34;5015329;28;20186;-69
2022/03/21 09:16:42;;;;;;;10.03;7.10;;;;;;;7.82;36.45;96351.94;5013856;28;20198;-68
2022/03/21 09:19:09;;;;;;;12.80;7.03;;;;;;;7.67;36.40;96351.84;5013836;28;20189;-62
2022/03/21 09:21:35;;;;;;;10.13;6.50;;;;;;;7.77;35.78;96358.13;5015176;28;20270;-63
2022/03/21 09:24:01;;;;;;;8.53;7.10;;;;;;;7.09;35.73;96353.66;5014743;28;20269;-63
2022/03/21 09:26:27;;;;;;;14.43;7.80;;;;;;;7.32;36.55;96340.78;5014997;28;20273;-63
2022/03/21 09:29:00;;;;;;;13.20;7.63;;;;;;;7.55;36.57;96327.91;5013535;28;20189;-63
2022/03/21 09:31:27;;;;;;;15.57;7.97;;;;;;;8.26;35.48;96357.47;5015034;28;20206;-68
2022/03/21 09:33:53;;;;;;;10.73;6.53;;;;;;;8.52;34.65;96358.75;5015813;28;20190;-68
2022/03/21 09:36:19;;;;;;;14.37;7.27;;;;;;;8.47;35.19;96358.94;5014606;28;20199;-68
2022/03/21 09:38:44;;;;;;;10.73;7.07;;;;;;;8.40;34.48;96360.16;5014546;28;20539;-69
2022/03/21 09:41:17;;;;;;;11.57;6.47;;;;;;;8.82;34.06;96364.81;5014686;28;20210;-67
2022/03/21 09:43:43;;;;;;;15.20;6.90;;;;;;;9.06;33.78;96358.50;4998275;28;20186;-67
2022/03/21 09:46:09;;;;;;;14.53;6.93;;;;;;;9.34;34.50;96356.16;5015291;28;20647;-67
2022/03/21 09:48:35;;;;;;;12.00;6.63;;;;;;;9.42;33.30;96389.56;5014404;28;20258;-66
2022/03/21 09:51:03;;;;;;;12.13;6.77;;;;;;;9.96;33.13;96361.22;5012943;28;20214;-66
2022/03/21 09:53:29;;;;;;;9.03;6.77;;;;;;;10.37;31.68;96381.00;5014289;28;20183;-64
2022/03/21 09:55:55;;;;;;;13.07;7.03;;;;;;;10.31;32.04;96356.75;5012930;28;20744;-63
2022/03/21 09:58:22;;;;;;;12.00;7.50;;;;;;;10.47;32.39;96341.44;5014648;28;20195;-65
2022/03/21 10:00:52;;;;;;;11.03;7.40;;;;;;;10.78;31.90;96341.31;5014605;28;20237;-70
2022/03/21 10:03:18;;;;;;;8.57;6.77;;;;;;;10.56;31.54;96330.75;5013134;28;20211;-63
2022/03/21 10:05:55;;;;;;;11.13;7.10;;;;;;;11.05;30.94;96349.84;5014235;28;20356;-63
2022/03/21 10:08:22;;;;;;;13.47;7.73;;;;;;;11.09;30.37;96335.25;5014583;28;20190;-69
2022/03/21 10:11:04;;;;;;;12.70;7.07;;;;;;;11.47;30.32;96336.28;5014118;28;20229;-67
2022/03/21 10:13:33;;;;;;;11.97;7.07;;;;;;;11.16;30.42;96286.41;5014381;28;20175;-68
2022/03/21 10:16:18;;;;;;;10.07;6.93;;;;;;;11.40;29.35;96291.72;5012769;28;20264;-64
2022/03/21 10:18:52;;;;;;;10.73;6.83;;;;;;;11.42;30.61;96262.72;5013173;28;20187;-68
2022/03/21 10:21:19;;;;;;;10.27;5.93;;;;;;;11.40;29.86;96267.09;5012544;28;20218;-63
2022/03/21 10:23:57;;;;;;;9.17;5.90;;;;;;;11.47;30.56;96247.94;5013750;28;20179;-63
2022/03/21 10:26:29;;;;;;;10.10;6.60;;;;;;;10.99;30.71;96244.16;5013900;28;20199;-67
2022/03/21 10:28:58;;;;;;;11.97;6.87;;;;;;;10.54;30.76;96202.88;5013694;28;20179;-66
2022/03/21 10:31:38;;;;;;;11.30;7.33;;;;;;;10.20;30.48;96186.25;5013594;28;20673;-63
2022/03/21 10:34:07;;;;;;;11.27;6.87;;;;;;;10.12;32.64;96163.84;5015386;28;20257;-68
2022/03/21 10:36:33;;;;;;;9.97;6.80;;;;;;;9.73;31.93;96165.31;5014725;28;20187;-63
2022/03/21 10:39:12;;;;;;;10.57;7.27;;;;;;;10.54;31.89;96173.19;5013824;28;20175;-62
2022/03/21 10:41:39;;;;;;;10.87;7.33;;;;;;;10.36;31.24;96165.84;5012577;28;20195;-63
2022/03/21 10:44:08;;;;;;;11.47;7.50;;;;;;;10.18;31.29;96170.28;5013719;28;20183;-68
2022/03/21 10:46:34;;;;;;;10.17;6.40;;;;;;;9.80;31.78;96152.16;5012511;28;20194;-64
2022/03/21 10:49:08;;;;;;;12.43;6.83;;;;;;;9.96;31.67;96152.06;5013619;28;20179;-68
2022/03/21 10:51:51;;;;;;;10.23;7.30;;;;;;;10.20;31.78;96144.78;5013675;28;20187;-68
2022/03/21 10:54:42;;;;;;;14.57;7.30;;;;;;;10.21;31.32;96154.84;5013314;28;20185;-63
2022/03/21 10:57:31;;;;;;;11.53;6.73;;;;;;;9.91;31.87;96144.75;5013429;28;20261;-63
2022/03/21 11:00:17;;;;;;;9.93;7.27;;;;;;;10.27;32.14;96138.41;5011379;28;20215;-63
2022/03/21 11:02:51;;;;;;;11.63;7.10;;;;;;;9.94;31.65;96126.78;5013361;28;20240;-64
2022/03/21 11:05:18;;;;;;;12.27;7.50;;;;;;;9.72;31.63;96138.25;5012875;28;20734;-67
2022/03/21 11:07:45;;;;;;;11.33;7.17;;;;;;;9.68;31.96;96127.47;5011920;28;20509;-64
2022/03/21 11:10:12;;;;;;;10.90;7.60;;;;;;;10.29;31.63;96132.34;5012746;28;20296;-63
2022/03/21 11:12:38;;;;;;;9.43;7.07;;;;;;;10.43;30.94;96123.88;5013185;28;20190;-63
2022/03/21 11:15:08;;;;;;;10.17;6.90;;;;;;;11.04;30.51;96134.47;5012628;28;20195;-62
2022/03/21 11:17:34;;;;;;;11.30;7.57;;;;;;;10.79;31.38;96108.91;5012607;28;20186;-61
2022/03/21 11:20:02;;;;;;;9.53;7.03;;;;;;;10.66;30.30;96123.31;5012627;28;20300;-68
2022/03/21 11:22:29;;;;;;;11.17;7.00;;;;;;;10.64;30.83;96115.78;5013087;28;20190;-67
2022/03/21 11:25:09;;;;;;;12.70;6.90;;;;;;;11.20;30.42;96096.94;5012491;28;20198;-68
2022/03/21 11:28:08;;;;;;;10.60;6.80;;;;;;;11.74;29.18;96126.50;5012525;28;20314;-67
2022/03/21 11:30:49;;;;;;;8.70;6.30;;;;;;;11.48;30.08;96116.34;5012495;28;20654;-67
2022/03/21 11:33:37;;;;;;;8.37;5.90;;;;;;;11.82;29.84;96106.44;5013032;28;20228;-66
2022/03/21 11:36:05;;;;;;;9.13;6.60;;;;;;;12.00;29.57;96108.69;5012432;28;20206;-63
2022/03/21 11:38:35;;;;;;;12.50;6.57;;;;;;;12.45;28.95;96103.00;5011411;28;20237;-64
2022/03/21 11:41:14;;;;;;;13.30;7.57;;;;;;;12.77;28.98;96093.94;5010792;28;20256;-63
2022/03/21 11:44:01;;;;;;;10.37;7.20;;;;;;;13.02;29.31;96085.34;5010919;28;20183;-63
2022/03/21 11:46:31;;;;;;;12.00;7.53;;;;;;;12.98;28.36;96081.38;4997862;28;20256;-68
2022/03/21 11:49:00;;;;;;;9.87;6.97;;;;;;;13.31;27.78;96069.59;5012454;28;20199;-68
2022/03/21 11:51:29;;;;;;;9.03;6.57;;;;;;;13.48;27.21;96070.91;5011181;28;20183;-63
2022/03/21 11:53:56;;;;;;;9.03;6.30;;;;;;;13.10;27.00;96070.31;5012296;28;20236;-64